Terminal Aerodrome Forecast
Issued by NWS Twin Cities, MN

Home | Current Version | Previous Version | Text Only | Print | Product List | Glossary On
Versions: 1 2 3 4 5 6 7 8 9 10 11 12 13 14 15 16 17
000
FTUS43 KMPX 302300
TAFSTC
TAF
KSTC 302320Z 3100/3124 VRB02KT P6SM VCSH SCT025 BKN050
     FM310500 12005KT 4SM BR FEW002 BKN015
     FM311500 15012G18KT P6SM SCT015 BKN110
     FM312000 17013G21KT P6SM VCTS SCT030CB BKN070
      TEMPO 3120/3124 2SM TSRA BKN030CB OVC070=

USA.gov is the U.S. government's official web portal to all federal, state and local government web resources and services.